Detall de PIREP

Printer-friendly versionPDF version

[2015/12/13 08:17:00]
Flight IATA:CT3225
Pilot Number:012
Company ICAO:CAT
Aircraft Type:B744/E
PAX:426
Departing Airport: LJLJ
Destination Airport: LEPA
Alternate Airport:LEBL
Online: VATSIM
Route:RIFEN UM196 LAGEN UM859 VAMTU UM984 DIVKO UN852 VERSO UL129 LUNIK
Flight Level:F390
No Slew and time accel
No pause
Crash detect
Detect pilot in Cockpit between each 30 and 45 minutes
08:17 Zero fuel Weight: 482565 Lbs, Fuel Weight: 70866 Lbs
08:17 VATSIM:LJLJ 130800Z 00000KT 9999 0400SE R30/0450D PRFG FEW001 M06/M06 Q1023 NOSIG
08:17 VATSIM:LEPA 130800Z 01002KT 9999 FEW025 08/08 Q1022 NOSIG
08:17 Parking Brakes off
08:22 Take-off
08:22 Take off Weight: 551760 Lbs
08:22 Wind: 000º @ 000 Knots Heading: 126º
08:22 POS N46º 13´ 23´´ E014º 27´ 30´´
08:22 Gear Up: 185 Knots
08:22 Flaps:3 at 185 Knots
08:22 Flaps:2 at 191 Knots
08:23 Flaps:1 at 206 Knots
08:23 Flaps:0 at 253 Knots
08:37 Wind:260º@026 Knots Heading: 250º Ground Speed: 450 Knots Altitude 38585 ft
08:37 TOC
08:37 Fuel Weight: 58247 Lb
08:52 Wind:220º@015 Knots Heading: 249º Ground Speed: 461 Knots Altitude 39317 ft
09:07 Wind:195º@015 Knots Heading: 246º Ground Speed: 468 Knots Altitude 39284 ft
09:22 Wind:192º@010 Knots Heading: 246º Ground Speed: 473 Knots Altitude 39288 ft
09:37 Wind:231º@008 Knots Heading: 190º Ground Speed: 474 Knots Altitude 39278 ft
09:42 TOD
09:42 Fuel Weight: 36669 Lb
09:52 Wind:218º@008 Knots Heading: 178º Ground Speed: 358 Knots Altitude 16843 ft
09:58 Flaps:1 at 216 Knots
09:59 Flaps:2 at 205 Knots
09:59 Flaps:3 at 196 Knots
09:59 Gear Down: 190 Knots
09:59 Flaps:4 at 174 Knots
09:59 Flaps:5 at 162 Knots
10:00 Flaps:6 at 145 Knots
10:02 TouchDown:Rate -370 ft/min Speed: 127 Knots
10:02 VATSIM:LEPA 130930Z VRB01KT 9999 FEW025 15/12 Q1022 NOSIG
10:02 Land
10:02 Wind:287º@001 Knots
10:02 Heading: 240º
10:02 Flight Duration: 01:40
10:02 Landing Weight: 515511 Lbs
10:02 POS N39º 33´ 00´´ E002º 45´ 01´´
10:05 Parking brakes on
10:05 Block to Block Duration: 01:48
10:05 Final Fuel: 32500 Lbls
10:05 Spent Fuel: 38366 Lbls
10:05 Flight Length: 708 NM
10:05 TOD Land Length: 106 NM

Exportar CSV

Powered by Drupal - Modified by Danger4k